Latest Weather Observations for Dartmoor

IDV60801

Issued at 10:35 pm EDT Thursday 27 November 2014 (issued every 30 minutes, with the page automatically refreshed every 10 minutes)

About weather observations | Map of weather stations | Latest weather observations for VIC | Other Formats
Station Details ID: 090194 Name: DARTMOOR Lat: -37.92 Lon: 141.26 Height: 51.0 m
Data from the previous 72 hours. | See also: Recent months at Dartmoor
Date/Time
EDT
Temp
°C
App
Temp
°C
Dew
Point
Rel
Hum
%
Delta-T
°C
Wind Press
QNH
hPa
Press
MSL
hPa
Rain
since 9 am
mm
Dir
 
Spd
km/h
Gust
km/h
Spd
kts
Gust
kts
27/10:30pm 11.3 8.6 10.4 94 0.5 SE 15 22 8 12 1024.2 1024.2 0.0
27/10:00pm 11.1 8.5 9.5 90 0.8 SE 13 17 7 9 1024.2 1024.2 0.0
27/09:30pm 11.5 8.9 9.2 86 1.2 SSE 13 19 7 10 1024.3 1024.3 0.0
27/09:00pm 12.3 8.9 9.0 80 1.6 SE 17 26 9 14 1024.3 1024.3 0.0
27/08:30pm 13.0 9.4 8.3 73 2.3 SE 17 26 9 14 1024.1 1024.1 0.0
27/08:00pm 14.2 9.7 8.4 68 2.9 SE 22 30 12 16 1023.9 1023.9 0.0
27/07:30pm 15.3 9.3 8.5 64 3.5 SE 30 37 16 20 1023.8 1023.8 0.0
27/07:00pm 16.3 10.6 8.3 59 4.1 SE 28 35 15 19 1023.8 1023.8 0.0
27/06:30pm 17.5 12.2 8.4 55 4.7 ESE 26 33 14 18 1023.8 1023.8 0.0
27/06:00pm 17.9 13.0 8.5 54 4.8 SE 24 30 13 16 1023.8 1023.8 0.0
27/05:30pm 19.7 14.9 9.0 50 5.6 SE 24 35 13 19 1023.7 1023.7 0.0
27/05:00pm 19.3 14.0 8.6 50 5.6 SE 26 35 14 19 1023.8 1023.8 0.0
27/04:30pm 20.7 16.3 9.0 47 6.2 ESE 22 33 12 18 1023.9 1023.9 0.0
27/04:00pm 20.7 15.8 8.4 45 6.4 ESE 24 32 13 17 1024.0 1024.0 0.0
27/03:30pm 20.9 16.4 8.5 45 6.5 E 22 33 12 18 1024.0 1024.0 0.0
27/03:00pm 21.4 16.6 8.7 44 6.7 ESE 24 33 13 18 1024.3 1024.3 0.0
27/02:30pm 21.0 16.9 8.6 45 6.5 SSE 20 32 11 17 1024.4 1024.4 0.0
27/02:00pm 20.6 16.1 8.6 46 6.3 ESE 22 32 12 17 1024.6 1024.6 0.0
27/01:30pm 21.1 17.0 8.7 45 6.5 SSE 20 33 11 18 1024.8 1024.8 0.0
27/01:00pm 19.7 15.6 7.8 46 6.1 ESE 19 28 10 15 1025.2 1025.2 0.0
27/12:30pm 19.4 15.2 8.1 48 5.8 SSE 20 30 11 16 1025.4 1025.4 0.0
27/12:00pm 18.1 14.6 7.2 49 5.5 SSE 15 24 8 13 1025.8 1025.8 0.0
27/11:30am 18.1 13.7 7.5 50 5.4 SSE 20 37 11 20 1026.0 1026.0 0.0
27/11:00am 17.6 13.8 7.6 52 5.0 ESE 17 28 9 15 1026.2 1026.2 0.0
27/10:30am 17.0 12.8 7.4 53 4.8 SE 19 35 10 19 1026.3 1026.3 0.0
27/10:00am 17.1 13.5 8.5 57 4.4 SE 17 26 9 14 1026.5 1026.5 0.0
27/09:30am 15.1 11.7 7.6 61 3.7 SE 15 26 8 14 1026.7 1026.7 0.0
27/09:00am 15.3 10.4 8.5 64 3.4 SE 24 30 13 16 1026.5 1026.5 0.0
27/08:30am 14.3 10.3 8.3 67 3.0 SE 19 28 10 15 1026.4 1026.4 0.0
27/08:00am 13.4 10.7 8.9 74 2.3 SE 13 22 7 12 1026.2 1026.2 0.0
27/07:30am 11.5 10.1 10.9 96 0.3 SE 9 11 5 6 1025.9 1025.9 0.0
27/07:00am 8.8 7.2 8.8 100 0.0 SSE 7 9 4 5 1025.8 1025.8 0.0
27/06:30am 7.3 5.3 7.2 99 0.0 S 7 9 4 5 1025.8 1025.8 0.0
27/06:00am 8.2 7.7 7.9 98 0.1 CALM 0 0 0 0 1025.7 1025.7 0.0
27/05:30am 9.2 7.8 8.7 97 0.2 SE 6 9 3 5 1025.4 1025.4 0.0
27/05:00am 8.8 8.5 8.5 98 0.1 CALM 0 0 0 0 1025.3 1025.3 0.0
27/04:30am 8.4 7.9 8.0 97 0.2 CALM 0 0 0 0 1025.0 1025.0 0.0
27/04:00am 8.6 8.1 7.8 95 0.4 CALM 0 0 0 0 1024.8 1024.8 0.0
27/03:30am 8.9 8.4 7.8 93 0.5 CALM 0 0 0 0 1024.7 1024.7 0.0
27/03:00am 9.2 8.7 8.0 92 0.6 CALM 0 0 0 0 1024.8 1024.8 0.0
27/02:30am 9.3 8.0 7.6 89 0.8 SE 4 7 2 4 1024.9 1024.9 0.0
27/02:00am 9.3 7.4 7.6 89 0.8 SSE 7 9 4 5 1024.9 1024.9 0.0
27/01:30am 9.5 8.2 7.6 88 0.9 SSE 4 9 2 5 1025.2 1025.2 0.0
27/01:00am 10.2 8.5 8.5 89 0.8 S 7 9 4 5 1025.5 1025.5 0.0
27/12:30am 9.5 8.4 8.3 92 0.6 SSE 4 6 2 3 1025.6 1025.6 0.0
27/12:00am 8.8 6.8 7.3 90 0.7 S 7 11 4 6 1025.7 1025.7 0.0
 
Date/Time
EDT
Temp
°C
App
Temp
°C
Dew
Point
Rel
Hum
%
Delta-T
°C
Wind Press
QNH
hPa
Press
MSL
hPa
Rain
since 9 am
mm
Dir
 
Spd
km/h
Gust
km/h
Spd
kts
Gust
kts
26/11:30pm 9.3 6.6 7.4 88 0.9 S 11 15 6 8 1025.6 1025.6 0.0
26/11:00pm 10.2 7.3 8.0 86 1.1 SSE 13 19 7 10 1025.5 1025.5 0.0
26/10:30pm 10.5 7.6 8.1 85 1.2 SSE 13 15 7 8 1025.4 1025.4 0.0
26/10:00pm 10.9 8.1 8.7 86 1.1 SSE 13 19 7 10 1025.1 1025.1 0.0
26/09:30pm 11.9 9.2 9.1 83 1.4 SSE 13 17 7 9 1024.8 1024.8 0.0
26/09:00pm 12.6 9.6 9.4 81 1.6 S 15 20 8 11 1024.7 1024.7 0.0
26/08:30pm 13.3 10.2 9.0 75 2.2 S 15 24 8 13 1024.4 1024.4 0.0
26/08:00pm 14.7 11.5 10.1 74 2.4 S 17 22 9 12 1024.3 1024.3 0.0
26/07:30pm 15.5 12.7 10.1 70 2.8 SSW 15 20 8 11 1023.9 1023.9 0.0
26/07:00pm 16.2 12.5 9.4 64 3.5 SSW 19 28 10 15 1023.8 1023.8 0.0
26/06:30pm 17.5 13.9 9.9 61 4.0 SSW 19 30 10 16 1023.5 1023.5 0.0
26/06:00pm 17.4 13.4 10.5 64 3.7 SSW 22 32 12 17 1023.3 1023.3 0.0
26/05:30pm 16.8 12.9 10.9 68 3.2 SSW 22 30 12 16 1023.3 1023.3 0.0
26/05:00pm 17.7 14.2 11.0 65 3.6 SSW 20 30 11 16 1023.3 1023.3 0.0
26/04:30pm 18.2 15.1 12.2 68 3.3 SSW 20 32 11 17 1023.2 1023.2 0.0
26/04:00pm 18.3 14.9 12.5 69 3.2 SSW 22 32 12 17 1023.0 1023.0 0.0
26/03:30pm 17.2 13.2 13.1 77 2.3 S 26 33 14 18 1023.3 1023.3 0.0
26/03:00pm 16.8 13.4 13.7 82 1.7 SSW 24 32 13 17 1023.1 1023.1 0.0
26/02:30pm 17.9 13.6 13.2 74 2.7 SSW 28 35 15 19 1023.1 1023.1 0.0
26/02:00pm 18.9 16.0 12.9 68 3.4 SSW 20 28 11 15 1023.1 1023.1 0.0
26/01:30pm 18.8 15.8 12.5 67 3.5 SSW 20 30 11 16 1023.0 1023.0 0.0
26/01:00pm 19.5 17.1 13.7 69 3.3 SW 19 32 10 17 1023.1 1023.1 0.0
26/12:30pm 18.3 15.9 12.5 69 3.2 SW 17 26 9 14 1023.2 1023.2 0.0
26/12:00pm 18.7 17.1 12.9 69 3.3 WSW 13 20 7 11 1023.2 1023.2 0.0
26/11:30am 18.1 15.3 12.5 70 3.1 SW 19 24 10 13 1023.3 1023.3 0.0
26/11:00am 17.3 15.6 12.6 74 2.6 SW 13 19 7 10 1023.2 1023.2 0.0
26/10:30am 16.7 15.0 12.5 76 2.3 WSW 13 20 7 11 1023.1 1023.1 0.0
26/10:00am 15.2 12.4 12.7 85 1.4 WSW 19 30 10 16 1023.1 1023.1 0.0
26/09:30am 15.6 13.8 12.2 80 1.9 WSW 13 19 7 10 1023.0 1023.0 0.0
26/09:00am 15.2 14.1 12.0 81 1.7 W 9 17 5 9 1022.6 1022.6 0.0
26/08:30am 13.9 13.4 12.5 91 0.8 WNW 7 11 4 6 1022.4 1022.4 0.0
26/08:00am 13.4 12.9 12.6 95 0.4 WNW 7 9 4 5 1022.2 1022.2 0.0
26/07:30am 12.6 12.1 12.6 100 0.0 NW 7 11 4 6 1021.8 1021.8 0.0
26/07:00am 12.1 11.4 12.1 100 0.0 NW 7 9 4 5 1021.7 1021.7 0.0
26/06:30am 12.0 11.3 12.0 100 0.0 WNW 7 9 4 5 1021.6 1021.6 0.0
26/06:00am 11.9 10.7 11.7 99 0.1 WNW 9 13 5 7 1021.3 1021.3 0.0
26/05:30am 11.7 10.8 11.5 99 0.1 WNW 7 9 4 5 1021.0 1021.0 0.0
26/05:00am 11.6 10.7 11.4 99 0.1 WNW 7 9 4 5 1020.9 1020.9 0.0
26/04:30am 11.5 10.7 10.9 96 0.3 WNW 6 7 3 4 1020.8 1020.8 0.0
26/04:00am 11.2 11.3 10.3 94 0.5 CALM 0 0 0 0 1020.8 1020.8 0.0
26/03:30am 11.2 10.6 10.3 94 0.5 NNW 4 4 2 2 1020.8 1020.8 0.0
26/03:00am 11.1 10.0 10.0 93 0.6 WNW 6 6 3 3 1021.0 1021.0 0.0
26/02:30am 11.1 10.4 9.9 92 0.6 NW 4 6 2 3 1021.2 1021.2 0.0
26/02:00am 11.1 10.4 9.9 92 0.6 NW 4 4 2 2 1021.4 1021.4 0.0
26/01:30am 11.0 9.7 9.8 92 0.6 NW 7 9 4 5 1021.7 1021.7 0.0
26/01:00am 10.8 9.7 9.9 94 0.5 NNW 6 7 3 4 1022.0 1022.0 0.0
26/12:30am 10.4 9.1 9.8 96 0.3 NW 7 9 4 5 1022.2 1022.2 0.0
26/12:00am 10.1 8.1 8.7 91 0.7 NW 9 9 5 5 1022.4 1022.4 0.0
 
Date/Time
EDT
Temp
°C
App
Temp
°C
Dew
Point
Rel
Hum
%
Delta-T
°C
Wind Press
QNH
hPa
Press
MSL
hPa
Rain
since 9 am
mm
Dir
 
Spd
km/h
Gust
km/h
Spd
kts
Gust
kts
25/11:30pm 10.7 8.9 9.3 91 0.7 NW 9 9 5 5 1022.4 1022.4 0.0
25/11:00pm 10.3 8.5 8.1 86 1.1 WNW 7 7 4 4 1022.6 1022.6 0.0
25/10:30pm 11.4 9.8 7.9 79 1.7 WNW 6 7 3 4 1022.6 1022.6 0.0
25/10:00pm 12.1 10.4 7.4 73 2.3 W 6 7 3 4 1022.5 1022.5 0.0
25/09:30pm 12.8 11.1 7.5 70 2.6 W 6 7 3 4 1022.4 1022.4 0.0
25/09:00pm 12.9 10.9 7.1 68 2.8 WSW 7 11 4 6 1022.3 1022.3 0.0
25/08:30pm 13.4 10.5 6.7 64 3.2 WSW 11 17 6 9 1022.2 1022.2 0.0
25/08:00pm 14.1 11.4 7.2 63 3.4 SW 11 19 6 10 1022.1 1022.1 0.0
25/07:30pm 14.4 10.9 7.2 62 3.5 SW 15 26 8 14 1021.9 1021.9 0.0
25/07:00pm 14.7 10.5 7.3 61 3.6 WSW 19 26 10 14 1021.7 1021.7 0.0
25/06:30pm 14.9 11.4 8.6 66 3.2 SW 17 26 9 14 1021.2 1021.2 0.0
25/06:00pm 15.3 10.8 8.5 64 3.4 WSW 22 30 12 16 1021.0 1021.0 0.0
25/05:30pm 15.5 11.4 8.7 64 3.5 W 20 28 11 15 1020.9 1020.9 0.0
25/05:00pm 16.7 12.2 8.4 58 4.2 SW 22 41 12 22 1020.8 1020.8 0.0
25/04:30pm 16.6 12.4 8.3 58 4.2 SW 20 35 11 19 1020.8 1020.8 0.0
25/04:00pm 16.4 11.9 10.0 66 3.4 SW 24 33 13 18 1020.8 1020.8 0.0
25/03:30pm 17.0 12.9 8.7 58 4.3 WSW 20 33 11 18 1020.8 1020.8 0.0
25/03:00pm 16.2 11.8 8.9 62 3.7 WSW 22 28 12 15 1021.1 1021.1 0.0
25/02:30pm 15.6 11.5 8.8 64 3.5 WSW 20 35 11 19 1021.2 1021.2 0.0
25/02:00pm 16.9 12.8 8.8 59 4.2 WSW 20 30 11 16 1021.0 1021.0 0.0
25/01:30pm 17.0 12.5 7.1 52 4.9 W 20 26 11 14 1020.9 1020.9 0.0
25/01:00pm 15.6 11.7 8.8 64 3.5 WSW 19 30 10 16 1021.3 1021.3 0.0
25/12:30pm 16.1 11.8 7.8 58 4.2 W 20 30 11 16 1021.2 1021.2 0.0
25/12:00pm 16.6 12.7 7.3 54 4.6 W 17 26 9 14 1020.9 1020.9 0.0
25/11:30am 15.9 11.8 7.9 59 4.0 WSW 19 28 10 15 1021.0 1021.0 0.0
25/11:00am 15.2 11.4 8.9 66 3.2 W 19 28 10 15 1020.9 1020.9 0.0
25/10:30am 15.2 11.6 10.0 71 2.7 W 19 33 10 18 1020.6 1020.6 0.0
25/10:00am 14.0 12.2 12.0 88 1.1 W 13 20 7 11 1020.5 1020.5 0.0
25/09:30am 14.1 13.7 14.1 100 0.0 W 9 15 5 8 1020.1 1020.1 0.0
25/09:00am 12.7 11.8 12.7 100 0.0 WNW 9 15 5 8 1019.8 1019.8 3.4
25/08:30am 12.2 11.2 12.2 100 0.0 WNW 9 15 5 8 1019.5 1019.5 3.4
25/08:00am 11.0 9.2 11.0 100 0.0 WNW 11 17 6 9 1019.4 1019.4 3.2
25/07:30am 10.4 10.6 10.4 100 0.0 CALM 0 0 0 0 1018.8 1018.8 3.2
25/07:00am 9.6 8.4 9.6 100 0.0 NW 6 7 3 4 1018.5 1018.5 3.2
25/06:30am 9.0 7.1 9.0 100 0.0 NNW 9 13 5 7 1018.1 1018.1 3.0
25/06:00am 8.6 7.1 8.6 100 0.0 NNW 6 7 3 4 1017.7 1017.7 3.0
25/05:30am 8.3 7.9 8.3 100 0.0 CALM 0 0 0 0 1017.1 1017.1 3.0
25/05:00am 8.9 7.3 8.9 100 0.0 NW 7 11 4 6 1016.8 1016.8 3.0
25/04:30am 8.7 6.7 8.7 100 0.0 NW 9 13 5 7 1016.6 1016.6 3.0
25/04:00am 9.3 7.8 9.3 100 0.0 WNW 7 11 4 6 1016.4 1016.4 3.0
25/03:30am 9.4 7.2 9.4 100 0.0 WNW 11 15 6 8 1016.7 1016.7 3.0
25/03:00am 8.7 6.7 8.7 100 0.0 WNW 9 13 5 7 1016.4 1016.4 3.0
25/02:30am 8.4 5.9 8.4 100 0.0 WNW 11 13 6 7 1016.5 1016.5 3.0
25/02:00am 8.4 6.3 8.4 100 0.0 NW 9 11 5 6 1016.6 1016.6 3.0
25/01:30am 8.8 6.4 8.8 100 0.0 NW 11 13 6 7 1016.5 1016.5 2.8
25/01:00am 8.8 6.8 8.8 100 0.0 NW 9 11 5 6 1016.4 1016.4 2.8
25/12:30am 9.3 7.5 9.3 100 0.0 NW 9 13 5 7 1016.2 1016.2 2.8
25/12:00am 8.9 7.0 8.9 100 0.0 NW 9 11 5 6 1016.1 1016.1 2.4
 
Date/Time
EDT
Temp
°C
App
Temp
°C
Dew
Point
Rel
Hum
%
Delta-T
°C
Wind Press
QNH
hPa
Press
MSL
hPa
Rain
since 9 am
mm
Dir
 
Spd
km/h
Gust
km/h
Spd
kts
Gust
kts
24/11:30pm 9.6 7.5 9.6 100 0.0 WNW 11 13 6 7 1016.1 1016.1 2.4
24/11:00pm 9.9 8.2 9.9 100 0.0 WNW 9 13 5 7 1015.9 1015.9 2.4

Other Formats:

Comma delimited format used in spreadsheet applications
http://www.bom.gov.au/fwo/IDV60801/IDV60801.95822.axf

JavaScript Object Notation format (JSON) in row-major order
http://www.bom.gov.au/fwo/IDV60801/IDV60801.95822.json